sensor_id;sensor_type;location;lat;lon;timestamp;pressure;altitude;pressure_sealevel;temperature;humidity
36254;BME280;22291;52.250;21.228;2022-08-19T00:01:44;99986.31;;;21.83;72.61
36254;BME280;22291;52.250;21.228;2022-08-19T00:04:14;99981.38;;;21.79;72.62
36254;BME280;22291;52.250;21.228;2022-08-19T00:06:44;99980.00;;;21.75;72.63
36254;BME280;22291;52.250;21.228;2022-08-19T00:09:13;99979.02;;;21.74;72.73
36254;BME280;22291;52.250;21.228;2022-08-19T00:11:42;99969.98;;;21.70;72.90
36254;BME280;22291;52.250;21.228;2022-08-19T00:14:11;99976.66;;;21.65;72.85
36254;BME280;22291;52.250;21.228;2022-08-19T00:16:40;99975.48;;;21.62;73.12
36254;BME280;22291;52.250;21.228;2022-08-19T00:19:08;99978.42;;;21.60;73.30
36254;BME280;22291;52.250;21.228;2022-08-19T00:21:35;99982.55;;;21.56;73.25
36254;BME280;22291;52.250;21.228;2022-08-19T00:24:04;99977.82;;;21.53;73.37
36254;BME280;22291;52.250;21.228;2022-08-19T00:26:31;99979.97;;;21.50;73.41
36254;BME280;22291;52.250;21.228;2022-08-19T00:28:58;99973.66;;;21.46;73.41
36254;BME280;22291;52.250;21.228;2022-08-19T00:31:27;99972.47;;;21.43;73.79
36254;BME280;22291;52.250;21.228;2022-08-19T00:33:54;99984.45;;;21.41;73.97
36254;BME280;22291;52.250;21.228;2022-08-19T00:36:21;99985.23;;;21.38;73.99
36254;BME280;22291;52.250;21.228;2022-08-19T00:38:48;99983.67;;;21.34;74.05
36254;BME280;22291;52.250;21.228;2022-08-19T00:41:18;99979.13;;;21.32;74.11
36254;BME280;22291;52.250;21.228;2022-08-19T00:44:05;99983.84;;;21.31;74.11
36254;BME280;22291;52.250;21.228;2022-08-19T00:46:33;99990.92;;;21.29;74.35
36254;BME280;22291;52.250;21.228;2022-08-19T00:49:02;99992.30;;;21.25;74.24
36254;BME280;22291;52.250;21.228;2022-08-19T00:51:32;99992.47;;;21.22;74.49
36254;BME280;22291;52.250;21.228;2022-08-19T00:53:59;99986.19;;;21.18;74.38
36254;BME280;22291;52.250;21.228;2022-08-19T00:56:26;99989.70;;;21.15;74.58
36254;BME280;22291;52.250;21.228;2022-08-19T00:58:55;99992.84;;;21.14;74.75
36254;BME280;22291;52.250;21.228;2022-08-19T01:01:23;99990.86;;;21.11;74.95
36254;BME280;22291;52.250;21.228;2022-08-19T01:03:50;99987.72;;;21.08;74.98
36254;BME280;22291;52.250;21.228;2022-08-19T01:06:16;99987.11;;;21.05;75.05
36254;BME280;22291;52.250;21.228;2022-08-19T01:08:42;99985.13;;;21.02;75.13
36254;BME280;22291;52.250;21.228;2022-08-19T01:11:09;99986.70;;;21.00;75.08
36254;BME280;22291;52.250;21.228;2022-08-19T01:13:35;99992.38;;;20.97;75.13
36254;BME280;22291;52.250;21.228;2022-08-19T01:16:05;99990.39;;;20.94;75.18
36254;BME280;22291;52.250;21.228;2022-08-19T01:18:36;99989.22;;;20.92;75.35
36254;BME280;22291;52.250;21.228;2022-08-19T01:21:21;99987.84;;;20.88;75.54
36254;BME280;22291;52.250;21.228;2022-08-19T01:23:54;99990.76;;;20.85;75.44
36254;BME280;22291;52.250;21.228;2022-08-19T01:26:23;99989.19;;;20.81;75.56
36254;BME280;22291;52.250;21.228;2022-08-19T01:28:54;99991.72;;;20.80;75.78
36254;BME280;22291;52.250;21.228;2022-08-19T01:31:25;99994.86;;;20.78;75.90
36254;BME280;22291;52.250;21.228;2022-08-19T01:33:54;99990.94;;;20.76;75.86
36254;BME280;22291;52.250;21.228;2022-08-19T01:36:39;99993.30;;;20.77;76.02
36254;BME280;22291;52.250;21.228;2022-08-19T01:39:10;99987.19;;;20.74;76.02
36254;BME280;22291;52.250;21.228;2022-08-19T01:41:39;99992.48;;;20.73;76.17
36254;BME280;22291;52.250;21.228;2022-08-19T01:44:07;99995.02;;;20.72;76.47
36254;BME280;22291;52.250;21.228;2022-08-19T01:46:34;99998.73;;;20.70;76.62
36254;BME280;22291;52.250;21.228;2022-08-19T01:49:02;99997.75;;;20.68;76.73
36254;BME280;22291;52.250;21.228;2022-08-19T01:51:30;100002.67;;;20.69;76.79
36254;BME280;22291;52.250;21.228;2022-08-19T01:53:56;100003.63;;;20.67;76.92
36254;BME280;22291;52.250;21.228;2022-08-19T01:56:23;99998.12;;;20.67;77.06
36254;BME280;22291;52.250;21.228;2022-08-19T01:58:58;99996.19;;;20.67;77.02
36254;BME280;22291;52.250;21.228;2022-08-19T02:01:21;99995.79;;;20.65;76.97
36254;BME280;22291;52.250;21.228;2022-08-19T02:03:47;99995.36;;;20.63;77.06
36254;BME280;22291;52.250;21.228;2022-08-19T02:06:14;99995.36;;;20.63;77.07
36254;BME280;22291;52.250;21.228;2022-08-19T02:08:43;99997.69;;;20.61;77.20
36254;BME280;22291;52.250;21.228;2022-08-19T02:11:17;99989.64;;;20.59;77.29
36254;BME280;22291;52.250;21.228;2022-08-19T02:13:46;99988.64;;;20.57;77.63
36254;BME280;22291;52.250;21.228;2022-08-19T02:16:12;99979.58;;;20.53;77.43
36254;BME280;22291;52.250;21.228;2022-08-19T02:18:38;99978.59;;;20.51;77.66
36254;BME280;22291;52.250;21.228;2022-08-19T02:21:04;99974.28;;;20.50;77.76
36254;BME280;22291;52.250;21.228;2022-08-19T02:23:31;99974.06;;;20.49;77.89
36254;BME280;22291;52.250;21.228;2022-08-19T02:25:57;99975.44;;;20.49;77.95
36254;BME280;22291;52.250;21.228;2022-08-19T02:28:23;99969.77;;;20.48;77.98
36254;BME280;22291;52.250;21.228;2022-08-19T02:30:50;99972.52;;;20.48;78.04
36254;BME280;22291;52.250;21.228;2022-08-19T02:33:16;99972.89;;;20.47;78.08
36254;BME280;22291;52.250;21.228;2022-08-19T02:35:44;99971.90;;;20.45;78.29
36254;BME280;22291;52.250;21.228;2022-08-19T02:38:11;99970.53;;;20.45;78.12
36254;BME280;22291;52.250;21.228;2022-08-19T02:40:59;99971.69;;;20.44;78.17
36254;BME280;22291;52.250;21.228;2022-08-19T02:43:29;99978.55;;;20.44;78.42
36254;BME280;22291;52.250;21.228;2022-08-19T02:45:56;99974.62;;;20.42;78.37
36254;BME280;22291;52.250;21.228;2022-08-19T02:48:23;99974.41;;;20.41;78.34
36254;BME280;22291;52.250;21.228;2022-08-19T02:50:52;99974.02;;;20.39;78.52
36254;BME280;22291;52.250;21.228;2022-08-19T02:53:25;99974.61;;;20.38;78.65
36254;BME280;22291;52.250;21.228;2022-08-19T02:55:52;99975.94;;;20.34;78.79
36254;BME280;22291;52.250;21.228;2022-08-19T02:58:21;99977.13;;;20.33;78.58
36254;BME280;22291;52.250;21.228;2022-08-19T03:00:51;99979.47;;;20.31;78.51
36254;BME280;22291;52.250;21.228;2022-08-19T03:03:19;99980.04;;;20.31;78.70
36254;BME280;22291;52.250;21.228;2022-08-19T03:05:47;99976.70;;;20.28;78.95
36254;BME280;22291;52.250;21.228;2022-08-19T03:08:13;99977.66;;;20.26;78.80
36254;BME280;22291;52.250;21.228;2022-08-19T03:10:42;99978.63;;;20.24;78.92
36254;BME280;22291;52.250;21.228;2022-08-19T03:13:15;99978.81;;;20.21;79.07
36254;BME280;22291;52.250;21.228;2022-08-19T03:16:05;99978.02;;;20.21;79.23
36254;BME280;22291;52.250;21.228;2022-08-19T03:18:31;99978.80;;;20.18;79.23
36254;BME280;22291;52.250;21.228;2022-08-19T03:20:57;99976.22;;;20.15;79.36
36254;BME280;22291;52.250;21.228;2022-08-19T03:23:23;99977.97;;;20.13;79.38
36254;BME280;22291;52.250;21.228;2022-08-19T03:25:51;99979.72;;;20.12;79.60
36254;BME280;22291;52.250;21.228;2022-08-19T03:28:19;99974.82;;;20.11;79.67
36254;BME280;22291;52.250;21.228;2022-08-19T03:31:12;99974.61;;;20.10;79.77
36254;BME280;22291;52.250;21.228;2022-08-19T03:33:37;99974.61;;;20.10;79.80
36254;BME280;22291;52.250;21.228;2022-08-19T03:36:10;99973.83;;;20.10;79.96
36254;BME280;22291;52.250;21.228;2022-08-19T03:38:48;99973.05;;;20.09;80.08
36254;BME280;22291;52.250;21.228;2022-08-19T03:41:17;99969.49;;;20.09;80.21
36254;BME280;22291;52.250;21.228;2022-08-19T03:43:44;99967.95;;;20.11;80.25
36254;BME280;22291;52.250;21.228;2022-08-19T03:46:18;99974.06;;;20.14;80.45
36254;BME280;22291;52.250;21.228;2022-08-19T03:48:47;99972.69;;;20.14;80.67
36254;BME280;22291;52.250;21.228;2022-08-19T03:51:18;99975.84;;;20.17;80.55
36254;BME280;22291;52.250;21.228;2022-08-19T03:53:45;99973.30;;;20.18;80.70
36254;BME280;22291;52.250;21.228;2022-08-19T03:56:13;99979.98;;;20.20;80.72
36254;BME280;22291;52.250;21.228;2022-08-19T03:58:40;99981.19;;;20.23;80.76
36254;BME280;22291;52.250;21.228;2022-08-19T04:01:10;99984.33;;;20.25;80.92
36254;BME280;22291;52.250;21.228;2022-08-19T04:03:39;99990.22;;;20.27;80.92
36254;BME280;22291;52.250;21.228;2022-08-19T04:06:14;99996.52;;;20.31;80.93
36254;BME280;22291;52.250;21.228;2022-08-19T04:08:48;99990.86;;;20.33;81.08
36254;BME280;22291;52.250;21.228;2022-08-19T04:11:19;99992.03;;;20.36;81.21
36254;BME280;22291;52.250;21.228;2022-08-19T04:13:48;99993.42;;;20.40;81.24
36254;BME280;22291;52.250;21.228;2022-08-19T04:16:18;99998.97;;;20.43;81.21
36254;BME280;22291;52.250;21.228;2022-08-19T04:18:46;99998.18;;;20.46;81.26
36254;BME280;22291;52.250;21.228;2022-08-19T04:21:18;99992.73;;;20.50;81.40
36254;BME280;22291;52.250;21.228;2022-08-19T04:23:47;99991.38;;;20.53;81.42
36254;BME280;22291;52.250;21.228;2022-08-19T04:26:17;99994.92;;;20.58;81.44
36254;BME280;22291;52.250;21.228;2022-08-19T04:28:45;99988.66;;;20.61;81.44
36254;BME280;22291;52.250;21.228;2022-08-19T04:31:14;99991.45;;;20.64;81.47
36254;BME280;22291;52.250;21.228;2022-08-19T04:33:42;99986.75;;;20.68;81.52
36254;BME280;22291;52.250;21.228;2022-08-19T04:36:21;99986.00;;;20.75;81.63
36254;BME280;22291;52.250;21.228;2022-08-19T04:38:42;99983.48;;;20.80;81.60
36254;BME280;22291;52.250;21.228;2022-08-19T04:41:08;99989.38;;;20.85;81.56
36254;BME280;22291;52.250;21.228;2022-08-19T04:43:53;99989.22;;;20.92;81.72
36254;BME280;22291;52.250;21.228;2022-08-19T04:46:19;99995.52;;;20.99;81.70
36254;BME280;22291;52.250;21.228;2022-08-19T04:48:45;99995.36;;;21.05;81.73
36254;BME280;22291;52.250;21.228;2022-08-19T04:51:12;99994.81;;;21.13;81.87
36254;BME280;22291;52.250;21.228;2022-08-19T04:53:41;99992.47;;;21.22;81.63
36254;BME280;22291;52.250;21.228;2022-08-19T04:56:13;99992.87;;;21.32;81.65
36254;BME280;22291;52.250;21.228;2022-08-19T04:58:42;99990.16;;;21.42;81.77
36254;BME280;22291;52.250;21.228;2022-08-19T05:01:12;99983.92;;;21.53;81.95
36254;BME280;22291;52.250;21.228;2022-08-19T05:03:46;99980.01;;;21.64;81.63
36254;BME280;22291;52.250;21.228;2022-08-19T05:06:14;99988.47;;;21.76;81.25
36254;BME280;22291;52.250;21.228;2022-08-19T05:08:42;99985.11;;;21.88;80.81
36254;BME280;22291;52.250;21.228;2022-08-19T05:13:44;99991.60;;;22.11;80.50
36254;BME280;22291;52.250;21.228;2022-08-19T05:16:12;99987.45;;;22.22;79.76
36254;BME280;22291;52.250;21.228;2022-08-19T05:18:40;99991.02;;;22.33;79.52
36254;BME280;22291;52.250;21.228;2022-08-19T05:21:25;99989.03;;;22.44;79.36
36254;BME280;22291;52.250;21.228;2022-08-19T05:24:11;99991.95;;;22.60;79.54
36254;BME280;22291;52.250;21.228;2022-08-19T05:26:40;99987.97;;;22.71;79.08
36254;BME280;22291;52.250;21.228;2022-08-19T05:29:09;99988.69;;;22.86;79.13
36254;BME280;22291;52.250;21.228;2022-08-19T05:31:36;99988.05;;;22.98;78.05
36254;BME280;22291;52.250;21.228;2022-08-19T05:34:04;99993.95;;;23.10;78.01
36254;BME280;22291;52.250;21.228;2022-08-19T05:36:37;100000.37;;;23.23;77.45
36254;BME280;22291;52.250;21.228;2022-08-19T05:39:08;100007.02;;;23.36;76.92
36254;BME280;22291;52.250;21.228;2022-08-19T05:41:42;100006.16;;;23.46;76.38
36254;BME280;22291;52.250;21.228;2022-08-19T05:44:10;100004.27;;;23.62;76.31
36254;BME280;22291;52.250;21.228;2022-08-19T05:46:37;100008.09;;;23.79;75.71
36254;BME280;22291;52.250;21.228;2022-08-19T05:49:06;100013.72;;;23.95;75.04
36254;BME280;22291;52.250;21.228;2022-08-19T05:51:34;100015.41;;;24.08;74.68
36254;BME280;22291;52.250;21.228;2022-08-19T05:54:02;100022.94;;;24.22;74.31
36254;BME280;22291;52.250;21.228;2022-08-19T05:56:30;100034.66;;;24.37;74.08
36254;BME280;22291;52.250;21.228;2022-08-19T05:58:57;100023.27;;;24.51;73.65
36254;BME280;22291;52.250;21.228;2022-08-19T06:01:25;100022.00;;;24.63;72.99
36254;BME280;22291;52.250;21.228;2022-08-19T06:03:53;100012.55;;;24.75;72.61
36254;BME280;22291;52.250;21.228;2022-08-19T06:06:19;100020.66;;;24.93;72.66
36254;BME280;22291;52.250;21.228;2022-08-19T06:08:47;100017.12;;;25.08;72.20
36254;BME280;22291;52.250;21.228;2022-08-19T06:11:25;100018.66;;;25.25;71.17
36254;BME280;22291;52.250;21.228;2022-08-19T06:14:05;100020.72;;;25.36;70.04
36254;BME280;22291;52.250;21.228;2022-08-19T06:16:37;100017.38;;;25.48;70.39
36254;BME280;22291;52.250;21.228;2022-08-19T06:19:13;100022.25;;;25.68;70.83
36254;BME280;22291;52.250;21.228;2022-08-19T06:21:38;100010.29;;;25.86;70.07
36254;BME280;22291;52.250;21.228;2022-08-19T06:24:08;100003.63;;;26.07;70.11
36254;BME280;22291;52.250;21.228;2022-08-19T06:26:41;100001.45;;;26.31;69.63
36254;BME280;22291;52.250;21.228;2022-08-19T06:29:10;100004.16;;;26.54;69.24
36254;BME280;22291;52.250;21.228;2022-08-19T06:31:44;100009.67;;;26.78;68.07
36254;BME280;22291;52.250;21.228;2022-08-19T06:34:12;100012.05;;;26.88;66.80
36254;BME280;22291;52.250;21.228;2022-08-19T06:36:41;100010.94;;;26.93;66.76
36254;BME280;22291;52.250;21.228;2022-08-19T06:39:15;100010.28;;;26.97;65.50
36254;BME280;22291;52.250;21.228;2022-08-19T06:42:06;100012.52;;;26.94;64.88
36254;BME280;22291;52.250;21.228;2022-08-19T06:44:36;100015.80;;;26.89;64.48
36254;BME280;22291;52.250;21.228;2022-08-19T06:47:04;100014.22;;;26.88;64.55
36254;BME280;22291;52.250;21.228;2022-08-19T06:49:33;100013.40;;;26.99;64.79
36254;BME280;22291;52.250;21.228;2022-08-19T06:52:00;100011.61;;;27.17;65.22
36254;BME280;22291;52.250;21.228;2022-08-19T06:54:27;100016.81;;;27.35;64.03
36254;BME280;22291;52.250;21.228;2022-08-19T06:56:56;100011.28;;;27.44;63.46
36254;BME280;22291;52.250;21.228;2022-08-19T06:59:25;100014.52;;;27.58;63.43
36254;BME280;22291;52.250;21.228;2022-08-19T07:01:55;100017.66;;;27.77;63.52
36254;BME280;22291;52.250;21.228;2022-08-19T07:04:25;100018.62;;;27.95;61.70
36254;BME280;22291;52.250;21.228;2022-08-19T07:07:00;100025.39;;;28.02;61.70
36254;BME280;22291;52.250;21.228;2022-08-19T07:09:29;100028.88;;;28.15;61.23
36254;BME280;22291;52.250;21.228;2022-08-19T07:11:56;100025.47;;;28.23;61.31
36254;BME280;22291;52.250;21.228;2022-08-19T07:14:25;100020.71;;;28.45;61.22
36254;BME280;22291;52.250;21.228;2022-08-19T07:16:55;100021.30;;;28.69;61.02
36254;BME280;22291;52.250;21.228;2022-08-19T07:19:25;100017.73;;;28.90;60.11
36254;BME280;22291;52.250;21.228;2022-08-19T07:21:54;100026.42;;;29.04;59.09
36254;BME280;22291;52.250;21.228;2022-08-19T07:24:26;100019.09;;;29.19;59.22
36254;BME280;22291;52.250;21.228;2022-08-19T07:26:55;100014.42;;;29.29;58.71
36254;BME280;22291;52.250;21.228;2022-08-19T07:29:27;100023.54;;;29.42;57.90
36254;BME280;22291;52.250;21.228;2022-08-19T07:31:55;100032.42;;;29.58;57.69
36254;BME280;22291;52.250;21.228;2022-08-19T07:34:25;100029.19;;;29.59;56.61
36254;BME280;22291;52.250;21.228;2022-08-19T07:36:54;100032.92;;;29.61;56.21
36254;BME280;22291;52.250;21.228;2022-08-19T07:39:24;100026.02;;;29.53;56.07
36254;BME280;22291;52.250;21.228;2022-08-19T07:41:52;100021.98;;;29.54;55.69
36254;BME280;22291;52.250;21.228;2022-08-19T07:44:21;100010.16;;;29.62;56.09
36254;BME280;22291;52.250;21.228;2022-08-19T07:46:52;100012.44;;;29.72;55.40
36254;BME280;22291;52.250;21.228;2022-08-19T07:49:20;100003.28;;;29.80;56.05
36254;BME280;22291;52.250;21.228;2022-08-19T07:51:50;100009.13;;;29.95;56.33
36254;BME280;22291;52.250;21.228;2022-08-19T07:54:20;100005.63;;;30.16;55.76
36254;BME280;22291;52.250;21.228;2022-08-19T07:56:48;100010.83;;;30.27;54.84
36254;BME280;22291;52.250;21.228;2022-08-19T07:59:17;100017.92;;;30.37;55.13
36254;BME280;22291;52.250;21.228;2022-08-19T08:01:44;100022.39;;;30.51;54.79
36254;BME280;22291;52.250;21.228;2022-08-19T08:04:11;100016.41;;;30.62;53.87
36254;BME280;22291;52.250;21.228;2022-08-19T08:06:56;100016.82;;;30.78;54.92
36254;BME280;22291;52.250;21.228;2022-08-19T08:09:42;100015.25;;;30.95;53.75
36254;BME280;22291;52.250;21.228;2022-08-19T08:12:15;100018.66;;;31.25;53.79
36254;BME280;22291;52.250;21.228;2022-08-19T08:14:48;100011.59;;;31.38;52.49
36254;BME280;22291;52.250;21.228;2022-08-19T08:17:18;100018.44;;;31.42;52.10
36254;BME280;22291;52.250;21.228;2022-08-19T08:19:47;100015.55;;;31.50;51.92
36254;BME280;22291;52.250;21.228;2022-08-19T08:22:18;100012.31;;;31.61;50.35
36254;BME280;22291;52.250;21.228;2022-08-19T08:25:07;100009.67;;;31.57;51.17
36254;BME280;22291;52.250;21.228;2022-08-19T08:27:42;100016.06;;;31.72;51.81
36254;BME280;22291;52.250;21.228;2022-08-19T08:30:12;100009.27;;;31.77;50.90
36254;BME280;22291;52.250;21.228;2022-08-19T08:32:40;100015.80;;;31.88;50.59
36254;BME280;22291;52.250;21.228;2022-08-19T08:35:10;100019.03;;;31.82;50.27
36254;BME280;22291;52.250;21.228;2022-08-19T08:37:38;100008.33;;;31.76;50.60
36254;BME280;22291;52.250;21.228;2022-08-19T08:40:09;100010.69;;;31.91;50.79
36254;BME280;22291;52.250;21.228;2022-08-19T08:42:39;100020.05;;;32.07;50.43
36254;BME280;22291;52.250;21.228;2022-08-19T08:45:14;100013.67;;;32.11;50.20
36254;BME280;22291;52.250;21.228;2022-08-19T08:47:48;100021.92;;;32.19;49.71
36254;BME280;22291;52.250;21.228;2022-08-19T08:50:17;100020.52;;;32.19;49.51
36254;BME280;22291;52.250;21.228;2022-08-19T08:52:56;100006.98;;;32.13;49.17
36254;BME280;22291;52.250;21.228;2022-08-19T08:55:25;100012.14;;;32.10;49.27
36254;BME280;22291;52.250;21.228;2022-08-19T08:58:03;100016.16;;;32.18;49.24
36254;BME280;22291;52.250;21.228;2022-08-19T09:00:37;100010.27;;;32.34;49.08
36254;BME280;22291;52.250;21.228;2022-08-19T09:03:15;100021.76;;;32.50;48.16
36254;BME280;22291;52.250;21.228;2022-08-19T09:06:04;100026.13;;;32.56;48.12
36254;BME280;22291;52.250;21.228;2022-08-19T09:09:00;100021.00;;;32.59;47.92
36254;BME280;22291;52.250;21.228;2022-08-19T09:11:45;100027.37;;;32.69;47.48
36254;BME280;22291;52.250;21.228;2022-08-19T09:16:59;100035.31;;;32.80;47.06
36254;BME280;22291;52.250;21.228;2022-08-19T09:19:28;100037.17;;;32.73;46.93
36254;BME280;22291;52.250;21.228;2022-08-19T09:21:54;100043.24;;;32.76;47.45
36254;BME280;22291;52.250;21.228;2022-08-19T09:24:21;100047.08;;;32.93;45.44
36254;BME280;22291;52.250;21.228;2022-08-19T09:26:47;100035.91;;;32.84;46.31
36254;BME280;22291;52.250;21.228;2022-08-19T09:29:13;100035.31;;;32.80;45.85
36254;BME280;22291;52.250;21.228;2022-08-19T09:31:40;100032.31;;;32.88;46.44
36254;BME280;22291;52.250;21.228;2022-08-19T09:34:06;100027.94;;;33.05;46.39
36254;BME280;22291;52.250;21.228;2022-08-19T09:36:34;100021.98;;;33.22;44.22
36254;BME280;22291;52.250;21.228;2022-08-19T09:39:05;100038.19;;;33.22;45.61
36254;BME280;22291;52.250;21.228;2022-08-19T09:41:32;100038.61;;;33.30;45.17
36254;BME280;22291;52.250;21.228;2022-08-19T09:43:59;100031.58;;;33.39;44.45
36254;BME280;22291;52.250;21.228;2022-08-19T09:46:26;100012.91;;;33.36;44.14
36254;BME280;22291;52.250;21.228;2022-08-19T09:48:56;100059.67;;;33.59;44.49
